sensor_id;sensor_type;location;lat;lon;timestamp;P1;durP1;ratioP1;P2;durP2;ratioP2
13592;SDS011;6867;50.998;4.250;2024-03-23T00:53:21;12.57;;;4.77;;
13592;SDS011;6867;50.998;4.250;2024-03-23T00:55:47;9.83;;;4.47;;
13592;SDS011;6867;50.998;4.250;2024-03-23T00:58:13;10.60;;;5.00;;
13592;SDS011;6867;50.998;4.250;2024-03-23T01:00:39;10.53;;;5.07;;
13592;SDS011;6867;50.998;4.250;2024-03-23T01:03:06;10.77;;;4.33;;
13592;SDS011;6867;50.998;4.250;2024-03-23T01:05:31;9.93;;;4.20;;
13592;SDS011;6867;50.998;4.250;2024-03-23T01:07:58;6.50;;;4.00;;
13592;SDS011;6867;50.998;4.250;2024-03-23T01:10:25;11.50;;;4.67;;
13592;SDS011;6867;50.998;4.250;2024-03-23T01:12:52;9.00;;;4.03;;
13592;SDS011;6867;50.998;4.250;2024-03-23T01:15:20;11.37;;;4.10;;
13592;SDS011;6867;50.998;4.250;2024-03-23T01:17:47;5.13;;;3.90;;
13592;SDS011;6867;50.998;4.250;2024-03-23T01:20:12;10.57;;;4.43;;
13592;SDS011;6867;50.998;4.250;2024-03-23T01:22:39;8.00;;;4.90;;
13592;SDS011;6867;50.998;4.250;2024-03-23T01:25:05;9.83;;;5.00;;
13592;SDS011;6867;50.998;4.250;2024-03-23T01:27:34;8.73;;;4.57;;
13592;SDS011;6867;50.998;4.250;2024-03-23T01:29:59;8.77;;;4.40;;
13592;SDS011;6867;50.998;4.250;2024-03-23T01:32:26;7.53;;;3.77;;
13592;SDS011;6867;50.998;4.250;2024-03-23T01:34:51;10.67;;;4.67;;
13592;SDS011;6867;50.998;4.250;2024-03-23T01:37:18;7.73;;;3.97;;
13592;SDS011;6867;50.998;4.250;2024-03-23T01:39:44;13.10;;;4.73;;
13592;SDS011;6867;50.998;4.250;2024-03-23T01:42:10;9.27;;;4.60;;
13592;SDS011;6867;50.998;4.250;2024-03-23T01:44:37;14.90;;;4.97;;
13592;SDS011;6867;50.998;4.250;2024-03-23T01:47:04;7.77;;;4.53;;
13592;SDS011;6867;50.998;4.250;2024-03-23T01:49:32;13.63;;;5.30;;
13592;SDS011;6867;50.998;4.250;2024-03-23T01:51:59;15.63;;;5.63;;
13592;SDS011;6867;50.998;4.250;2024-03-23T01:54:25;12.77;;;5.73;;
13592;SDS011;6867;50.998;4.250;2024-03-23T01:56:52;16.93;;;6.27;;
13592;SDS011;6867;50.998;4.250;2024-03-23T01:59:19;17.30;;;6.57;;
13592;SDS011;6867;50.998;4.250;2024-03-23T02:01:47;14.87;;;6.60;;
13592;SDS011;6867;50.998;4.250;2024-03-23T02:04:13;17.80;;;6.97;;
13592;SDS011;6867;50.998;4.250;2024-03-23T02:06:39;21.77;;;7.07;;
13592;SDS011;6867;50.998;4.250;2024-03-23T02:09:05;17.63;;;6.63;;
13592;SDS011;6867;50.998;4.250;2024-03-23T02:11:32;22.40;;;7.67;;
13592;SDS011;6867;50.998;4.250;2024-03-23T02:13:57;19.13;;;7.00;;
13592;SDS011;6867;50.998;4.250;2024-03-23T02:16:24;19.97;;;7.20;;
13592;SDS011;6867;50.998;4.250;2024-03-23T02:18:51;17.53;;;6.77;;
13592;SDS011;6867;50.998;4.250;2024-03-23T02:21:18;16.20;;;7.30;;
13592;SDS011;6867;50.998;4.250;2024-03-23T02:23:45;16.57;;;7.00;;
13592;SDS011;6867;50.998;4.250;2024-03-23T02:26:11;14.87;;;7.20;;
13592;SDS011;6867;50.998;4.250;2024-03-23T02:28:37;29.47;;;7.43;;
13592;SDS011;6867;50.998;4.250;2024-03-23T02:31:03;17.67;;;7.10;;
13592;SDS011;6867;50.998;4.250;2024-03-23T02:33:29;13.90;;;6.30;;
13592;SDS011;6867;50.998;4.250;2024-03-23T02:35:57;19.27;;;7.87;;
13592;SDS011;6867;50.998;4.250;2024-03-23T02:38:22;16.23;;;6.83;;
13592;SDS011;6867;50.998;4.250;2024-03-23T02:40:50;21.83;;;7.10;;
13592;SDS011;6867;50.998;4.250;2024-03-23T02:43:16;13.37;;;6.70;;
13592;SDS011;6867;50.998;4.250;2024-03-23T02:45:43;19.57;;;7.90;;
13592;SDS011;6867;50.998;4.250;2024-03-23T02:48:08;16.93;;;7.00;;
13592;SDS011;6867;50.998;4.250;2024-03-23T02:50:35;17.00;;;7.13;;
13592;SDS011;6867;50.998;4.250;2024-03-23T02:53:01;16.67;;;7.67;;
13592;SDS011;6867;50.998;4.250;2024-03-23T02:55:28;23.37;;;7.33;;
13592;SDS011;6867;50.998;4.250;2024-03-23T02:57:55;17.73;;;6.80;;
13592;SDS011;6867;50.998;4.250;2024-03-23T03:00:26;17.87;;;6.43;;
13592;SDS011;6867;50.998;4.250;2024-03-23T03:02:52;13.83;;;7.17;;
13592;SDS011;6867;50.998;4.250;2024-03-23T03:05:19;14.37;;;6.43;;
13592;SDS011;6867;50.998;4.250;2024-03-23T03:07:44;14.33;;;6.53;;
13592;SDS011;6867;50.998;4.250;2024-03-23T03:10:11;14.17;;;6.13;;
13592;SDS011;6867;50.998;4.250;2024-03-23T03:12:37;16.63;;;6.73;;
13592;SDS011;6867;50.998;4.250;2024-03-23T03:15:06;15.67;;;7.33;;
13592;SDS011;6867;50.998;4.250;2024-03-23T03:17:33;17.63;;;7.27;;
13592;SDS011;6867;50.998;4.250;2024-03-23T03:20:00;15.97;;;7.33;;
13592;SDS011;6867;50.998;4.250;2024-03-23T03:22:25;11.93;;;7.00;;
13592;SDS011;6867;50.998;4.250;2024-03-23T03:24:52;23.10;;;7.23;;
13592;SDS011;6867;50.998;4.250;2024-03-23T03:27:17;15.53;;;6.47;;
13592;SDS011;6867;50.998;4.250;2024-03-23T03:29:44;18.67;;;7.97;;
13592;SDS011;6867;50.998;4.250;2024-03-23T03:32:11;23.53;;;7.73;;
13592;SDS011;6867;50.998;4.250;2024-03-23T03:34:38;22.30;;;7.97;;
13592;SDS011;6867;50.998;4.250;2024-03-23T03:37:03;15.70;;;7.60;;
13592;SDS011;6867;50.998;4.250;2024-03-23T03:39:30;24.13;;;8.13;;
13592;SDS011;6867;50.998;4.250;2024-03-23T03:41:56;23.97;;;8.97;;
13592;SDS011;6867;50.998;4.250;2024-03-23T03:44:23;21.63;;;8.97;;
13592;SDS011;6867;50.998;4.250;2024-03-23T03:46:48;17.53;;;8.40;;
13592;SDS011;6867;50.998;4.250;2024-03-23T03:49:16;20.47;;;8.73;;
13592;SDS011;6867;50.998;4.250;2024-03-23T03:51:42;19.43;;;8.13;;
13592;SDS011;6867;50.998;4.250;2024-03-23T03:54:09;20.53;;;9.77;;
13592;SDS011;6867;50.998;4.250;2024-03-23T03:56:36;18.03;;;8.80;;
13592;SDS011;6867;50.998;4.250;2024-03-23T03:59:02;19.53;;;8.63;;
13592;SDS011;6867;50.998;4.250;2024-03-23T04:01:28;20.50;;;9.13;;
13592;SDS011;6867;50.998;4.250;2024-03-23T04:03:55;22.50;;;9.80;;
13592;SDS011;6867;50.998;4.250;2024-03-23T04:06:22;23.10;;;9.30;;
13592;SDS011;6867;50.998;4.250;2024-03-23T04:08:48;16.93;;;9.17;;
13592;SDS011;6867;50.998;4.250;2024-03-23T04:11:14;21.90;;;8.77;;
13592;SDS011;6867;50.998;4.250;2024-03-23T04:13:41;18.53;;;8.47;;
13592;SDS011;6867;50.998;4.250;2024-03-23T04:16:06;18.30;;;8.77;;
13592;SDS011;6867;50.998;4.250;2024-03-23T04:18:34;20.63;;;9.97;;
13592;SDS011;6867;50.998;4.250;2024-03-23T04:21:00;23.07;;;9.00;;
13592;SDS011;6867;50.998;4.250;2024-03-23T04:23:28;24.23;;;8.67;;
13592;SDS011;6867;50.998;4.250;2024-03-23T04:25:53;18.67;;;8.77;;
13592;SDS011;6867;50.998;4.250;2024-03-23T04:28:20;15.50;;;8.30;;
13592;SDS011;6867;50.998;4.250;2024-03-23T04:30:46;18.63;;;7.53;;
13592;SDS011;6867;50.998;4.250;2024-03-23T04:33:12;24.37;;;8.00;;
13592;SDS011;6867;50.998;4.250;2024-03-23T04:35:38;19.40;;;7.40;;
13592;SDS011;6867;50.998;4.250;2024-03-23T04:38:05;16.73;;;8.60;;
13592;SDS011;6867;50.998;4.250;2024-03-23T04:40:33;20.30;;;7.67;;
13592;SDS011;6867;50.998;4.250;2024-03-23T04:42:59;20.27;;;8.17;;
13592;SDS011;6867;50.998;4.250;2024-03-23T04:45:26;17.87;;;8.00;;
13592;SDS011;6867;50.998;4.250;2024-03-23T04:47:53;15.33;;;6.63;;
13592;SDS011;6867;50.998;4.250;2024-03-23T04:50:19;17.50;;;7.17;;
13592;SDS011;6867;50.998;4.250;2024-03-23T04:52:46;17.03;;;6.50;;
13592;SDS011;6867;50.998;4.250;2024-03-23T04:55:13;19.27;;;6.93;;
13592;SDS011;6867;50.998;4.250;2024-03-23T04:57:40;17.90;;;7.43;;
13592;SDS011;6867;50.998;4.250;2024-03-23T05:00:07;15.47;;;7.00;;
13592;SDS011;6867;50.998;4.250;2024-03-23T05:02:42;14.13;;;5.87;;
13592;SDS011;6867;50.998;4.250;2024-03-23T05:05:09;17.07;;;6.90;;
13592;SDS011;6867;50.998;4.250;2024-03-23T05:07:35;19.63;;;6.47;;
13592;SDS011;6867;50.998;4.250;2024-03-23T05:10:02;17.53;;;6.93;;
13592;SDS011;6867;50.998;4.250;2024-03-23T05:12:28;23.87;;;7.20;;
13592;SDS011;6867;50.998;4.250;2024-03-23T05:14:56;13.30;;;6.37;;
13592;SDS011;6867;50.998;4.250;2024-03-23T05:17:22;16.50;;;6.10;;
13592;SDS011;6867;50.998;4.250;2024-03-23T05:19:49;15.53;;;6.27;;
13592;SDS011;6867;50.998;4.250;2024-03-23T05:22:14;15.20;;;6.43;;
13592;SDS011;6867;50.998;4.250;2024-03-23T05:24:41;21.13;;;6.97;;
13592;SDS011;6867;50.998;4.250;2024-03-23T05:27:07;11.67;;;5.53;;
13592;SDS011;6867;50.998;4.250;2024-03-23T05:29:33;24.10;;;7.43;;
13592;SDS011;6867;50.998;4.250;2024-03-23T05:32:00;17.77;;;6.97;;
13592;SDS011;6867;50.998;4.250;2024-03-23T05:34:27;14.43;;;6.80;;
13592;SDS011;6867;50.998;4.250;2024-03-23T05:36:54;21.67;;;8.80;;
13592;SDS011;6867;50.998;4.250;2024-03-23T05:39:20;22.87;;;9.97;;
13592;SDS011;6867;50.998;4.250;2024-03-23T05:41:47;14.83;;;7.13;;
13592;SDS011;6867;50.998;4.250;2024-03-23T05:44:14;20.37;;;7.60;;
13592;SDS011;6867;50.998;4.250;2024-03-23T05:46:40;13.67;;;7.23;;
13592;SDS011;6867;50.998;4.250;2024-03-23T05:49:08;19.47;;;7.20;;
13592;SDS011;6867;50.998;4.250;2024-03-23T05:51:37;17.90;;;7.33;;
13592;SDS011;6867;50.998;4.250;2024-03-23T05:54:03;20.00;;;7.47;;
13592;SDS011;6867;50.998;4.250;2024-03-23T05:56:31;15.03;;;6.40;;
13592;SDS011;6867;50.998;4.250;2024-03-23T05:58:58;21.70;;;6.63;;
13592;SDS011;6867;50.998;4.250;2024-03-23T06:01:24;15.13;;;6.07;;
13592;SDS011;6867;50.998;4.250;2024-03-23T06:03:53;18.00;;;6.90;;
13592;SDS011;6867;50.998;4.250;2024-03-23T06:06:20;13.43;;;6.33;;
13592;SDS011;6867;50.998;4.250;2024-03-23T06:08:47;17.97;;;6.73;;
13592;SDS011;6867;50.998;4.250;2024-03-23T06:11:13;13.33;;;5.97;;
13592;SDS011;6867;50.998;4.250;2024-03-23T06:13:39;16.77;;;6.33;;
13592;SDS011;6867;50.998;4.250;2024-03-23T06:16:05;18.13;;;7.80;;
13592;SDS011;6867;50.998;4.250;2024-03-23T06:18:32;19.70;;;6.53;;
13592;SDS011;6867;50.998;4.250;2024-03-23T06:20:58;18.77;;;6.07;;
13592;SDS011;6867;50.998;4.250;2024-03-23T06:23:26;14.63;;;4.97;;
13592;SDS011;6867;50.998;4.250;2024-03-23T06:25:51;19.43;;;5.73;;
13592;SDS011;6867;50.998;4.250;2024-03-23T06:28:18;16.17;;;5.30;;
13592;SDS011;6867;50.998;4.250;2024-03-23T06:30:44;16.10;;;4.20;;
13592;SDS011;6867;50.998;4.250;2024-03-23T06:33:11;17.23;;;4.77;;
13592;SDS011;6867;50.998;4.250;2024-03-23T06:35:36;20.47;;;4.53;;
13592;SDS011;6867;50.998;4.250;2024-03-23T06:38:03;16.10;;;5.30;;
13592;SDS011;6867;50.998;4.250;2024-03-23T06:40:30;16.00;;;5.07;;
13592;SDS011;6867;50.998;4.250;2024-03-23T06:42:57;15.83;;;5.00;;
13592;SDS011;6867;50.998;4.250;2024-03-23T06:45:23;16.00;;;5.20;;
13592;SDS011;6867;50.998;4.250;2024-03-23T06:47:49;12.83;;;4.07;;
13592;SDS011;6867;50.998;4.250;2024-03-23T06:50:15;16.60;;;4.33;;
13592;SDS011;6867;50.998;4.250;2024-03-23T06:52:42;13.93;;;3.90;;
13592;SDS011;6867;50.998;4.250;2024-03-23T06:55:07;6.67;;;3.70;;
13592;SDS011;6867;50.998;4.250;2024-03-23T06:57:36;16.37;;;4.50;;
13592;SDS011;6867;50.998;4.250;2024-03-23T07:00:02;7.80;;;3.27;;
13592;SDS011;6867;50.998;4.250;2024-03-23T07:02:29;17.27;;;4.73;;
13592;SDS011;6867;50.998;4.250;2024-03-23T07:04:54;12.63;;;3.93;;
13592;SDS011;6867;50.998;4.250;2024-03-23T07:07:21;10.43;;;3.47;;
13592;SDS011;6867;50.998;4.250;2024-03-23T07:09:47;8.97;;;3.70;;
13592;SDS011;6867;50.998;4.250;2024-03-23T07:12:14;14.47;;;4.27;;
13592;SDS011;6867;50.998;4.250;2024-03-23T07:14:41;13.57;;;4.40;;
13592;SDS011;6867;50.998;4.250;2024-03-23T07:17:07;10.37;;;4.17;;
13592;SDS011;6867;50.998;4.250;2024-03-23T07:19:33;13.17;;;4.07;;
13592;SDS011;6867;50.998;4.250;2024-03-23T07:22:00;13.13;;;3.70;;
13592;SDS011;6867;50.998;4.250;2024-03-23T07:24:25;10.83;;;4.40;;
13592;SDS011;6867;50.998;4.250;2024-03-23T07:26:52;9.17;;;4.00;;
13592;SDS011;6867;50.998;4.250;2024-03-23T07:29:19;13.80;;;4.20;;
13592;SDS011;6867;50.998;4.250;2024-03-23T07:31:47;10.53;;;4.40;;
13592;SDS011;6867;50.998;4.250;2024-03-23T07:34:13;13.07;;;4.60;;
13592;SDS011;6867;50.998;4.250;2024-03-23T07:36:39;16.27;;;5.67;;
13592;SDS011;6867;50.998;4.250;2024-03-23T07:39:05;13.80;;;5.07;;
13592;SDS011;6867;50.998;4.250;2024-03-23T07:41:33;20.37;;;5.80;;
13592;SDS011;6867;50.998;4.250;2024-03-23T07:44:00;15.90;;;5.20;;
13592;SDS011;6867;50.998;4.250;2024-03-23T07:46:27;14.07;;;5.13;;
13592;SDS011;6867;50.998;4.250;2024-03-23T07:48:54;21.93;;;4.93;;
13592;SDS011;6867;50.998;4.250;2024-03-23T07:51:21;13.47;;;4.90;;
13592;SDS011;6867;50.998;4.250;2024-03-23T07:53:48;14.40;;;4.63;;
13592;SDS011;6867;50.998;4.250;2024-03-23T07:56:15;11.50;;;4.77;;
13592;SDS011;6867;50.998;4.250;2024-03-23T07:58:41;13.00;;;4.87;;
13592;SDS011;6867;50.998;4.250;2024-03-23T08:01:08;11.47;;;4.33;;
13592;SDS011;6867;50.998;4.250;2024-03-23T08:03:35;12.97;;;4.90;;
13592;SDS011;6867;50.998;4.250;2024-03-23T08:06:10;10.87;;;3.87;;
13592;SDS011;6867;50.998;4.250;2024-03-23T08:08:37;9.33;;;3.90;;
13592;SDS011;6867;50.998;4.250;2024-03-23T08:11:04;10.77;;;3.90;;
13592;SDS011;6867;50.998;4.250;2024-03-23T08:13:30;9.80;;;3.83;;
13592;SDS011;6867;50.998;4.250;2024-03-23T08:15:57;12.60;;;4.37;;
13592;SDS011;6867;50.998;4.250;2024-03-23T08:18:23;17.20;;;3.83;;
13592;SDS011;6867;50.998;4.250;2024-03-23T08:20:56;12.50;;;3.27;;
13592;SDS011;6867;50.998;4.250;2024-03-23T08:23:24;10.13;;;3.00;;
13592;SDS011;6867;50.998;4.250;2024-03-23T08:25:51;5.57;;;2.57;;
13592;SDS011;6867;50.998;4.250;2024-03-23T08:28:17;7.50;;;2.70;;
13592;SDS011;6867;50.998;4.250;2024-03-23T08:30:43;8.87;;;2.00;;
13592;SDS011;6867;50.998;4.250;2024-03-23T08:33:09;12.90;;;3.43;;
13592;SDS011;6867;50.998;4.250;2024-03-23T08:35:36;4.83;;;2.10;;
13592;SDS011;6867;50.998;4.250;2024-03-23T08:38:02;7.50;;;2.83;;
13592;SDS011;6867;50.998;4.250;2024-03-23T08:40:30;9.00;;;2.77;;
13592;SDS011;6867;50.998;4.250;2024-03-23T08:42:55;8.00;;;2.97;;
13592;SDS011;6867;50.998;4.250;2024-03-23T08:45:24;12.83;;;3.90;;
13592;SDS011;6867;50.998;4.250;2024-03-23T08:47:52;13.57;;;3.50;;
13592;SDS011;6867;50.998;4.250;2024-03-23T08:50:19;8.80;;;3.53;;
13592;SDS011;6867;50.998;4.250;2024-03-23T08:52:44;6.67;;;2.70;;
13592;SDS011;6867;50.998;4.250;2024-03-23T08:55:11;9.20;;;3.00;;
13592;SDS011;6867;50.998;4.250;2024-03-23T08:57:38;7.70;;;2.37;;
13592;SDS011;6867;50.998;4.250;2024-03-23T09:00:05;8.97;;;2.13;;
13592;SDS011;6867;50.998;4.250;2024-03-23T09:02:34;12.93;;;2.63;;
13592;SDS011;6867;50.998;4.250;2024-03-23T09:05:00;6.97;;;2.40;;
13592;SDS011;6867;50.998;4.250;2024-03-23T09:07:29;12.00;;;2.60;;
13592;SDS011;6867;50.998;4.250;2024-03-23T09:09:56;11.17;;;2.23;;
13592;SDS011;6867;50.998;4.250;2024-03-23T09:12:23;8.87;;;2.37;;
13592;SDS011;6867;50.998;4.250;2024-03-23T09:14:51;8.10;;;2.07;;
13592;SDS011;6867;50.998;4.250;2024-03-23T09:17:18;6.57;;;1.73;;
13592;SDS011;6867;50.998;4.250;2024-03-23T09:19:45;6.50;;;2.27;;
13592;SDS011;6867;50.998;4.250;2024-03-23T09:22:10;4.33;;;1.80;;
13592;SDS011;6867;50.998;4.250;2024-03-23T09:24:38;10.60;;;2.23;;
13592;SDS011;6867;50.998;4.250;2024-03-23T09:27:04;5.57;;;1.80;;
13592;SDS011;6867;50.998;4.250;2024-03-23T09:29:31;8.93;;;2.53;;
13592;SDS011;6867;50.998;4.250;2024-03-23T09:31:58;8.83;;;2.03;;
13592;SDS011;6867;50.998;4.250;2024-03-23T09:34:24;9.60;;;2.17;;
13592;SDS011;6867;50.998;4.250;2024-03-23T09:36:50;7.83;;;2.93;;
13592;SDS011;6867;50.998;4.250;2024-03-23T09:39:18;9.80;;;2.67;;
13592;SDS011;6867;50.998;4.250;2024-03-23T09:41:44;11.17;;;2.67;;
13592;SDS011;6867;50.998;4.250;2024-03-23T09:44:11;5.43;;;2.33;;
13592;SDS011;6867;50.998;4.250;2024-03-23T09:46:37;5.93;;;2.20;;
13592;SDS011;6867;50.998;4.250;2024-03-23T09:49:06;6.40;;;2.10;;
13592;SDS011;6867;50.998;4.250;2024-03-23T09:51:34;3.40;;;1.50;;
13592;SDS011;6867;50.998;4.250;2024-03-23T09:54:02;8.27;;;2.10;;
13592;SDS011;6867;50.998;4.250;2024-03-23T09:56:27;8.37;;;2.00;;
13592;SDS011;6867;50.998;4.250;2024-03-23T09:58:59;6.77;;;1.77;;
13592;SDS011;6867;50.998;4.250;2024-03-23T10:01:25;7.23;;;2.27;;
13592;SDS011;6867;50.998;4.250;2024-03-23T10:03:52;6.77;;;1.67;;
13592;SDS011;6867;50.998;4.250;2024-03-23T10:06:22;6.33;;;2.87;;
13592;SDS011;6867;50.998;4.250;2024-03-23T10:08:51;5.63;;;2.27;;
13592;SDS011;6867;50.998;4.250;2024-03-23T10:11:18;12.30;;;2.47;;
13592;SDS011;6867;50.998;4.250;2024-03-23T10:13:46;6.07;;;1.87;;
13592;SDS011;6867;50.998;4.250;2024-03-23T10:16:12;4.13;;;2.43;;
13592;SDS011;6867;50.998;4.250;2024-03-23T10:18:47;6.10;;;2.53;;
13592;SDS011;6867;50.998;4.250;2024-03-23T10:21:14;6.03;;;2.70;;
13592;SDS011;6867;50.998;4.250;2024-03-23T10:23:42;6.00;;;2.33;;
13592;SDS011;6867;50.998;4.250;2024-03-23T10:26:17;8.47;;;2.87;;
13592;SDS011;6867;50.998;4.250;2024-03-23T10:28:52;3.03;;;2.00;;
13592;SDS011;6867;50.998;4.250;2024-03-23T10:31:23;5.20;;;2.37;;
13592;SDS011;6867;50.998;4.250;2024-03-23T10:33:50;6.50;;;2.87;;
13592;SDS011;6867;50.998;4.250;2024-03-23T10:36:15;5.70;;;2.57;;
13592;SDS011;6867;50.998;4.250;2024-03-23T10:38:45;5.93;;;3.10;;
13592;SDS011;6867;50.998;4.250;2024-03-23T10:41:11;5.60;;;2.50;;
13592;SDS011;6867;50.998;4.250;2024-03-23T10:43:38;8.57;;;2.83;;
13592;SDS011;6867;50.998;4.250;2024-03-23T10:46:04;6.90;;;2.37;;
13592;SDS011;6867;50.998;4.250;2024-03-23T10:48:31;4.73;;;2.33;;
13592;SDS011;6867;50.998;4.250;2024-03-23T10:50:57;3.33;;;2.10;;
13592;SDS011;6867;50.998;4.250;2024-03-23T10:53:25;6.20;;;2.37;;
13592;SDS011;6867;50.998;4.250;2024-03-23T10:55:53;6.60;;;2.63;;
13592;SDS011;6867;50.998;4.250;2024-03-23T10:58:23;5.87;;;2.37;;
13592;SDS011;6867;50.998;4.250;2024-03-23T11:00:52;4.70;;;2.70;;
13592;SDS011;6867;50.998;4.250;2024-03-23T11:03:29;5.20;;;3.00;;
13592;SDS011;6867;50.998;4.250;2024-03-23T11:05:56;8.43;;;3.57;;
13592;SDS011;6867;50.998;4.250;2024-03-23T11:08:32;7.07;;;3.60;;
13592;SDS011;6867;50.998;4.250;2024-03-23T11:13:43;8.53;;;3.33;;
13592;SDS011;6867;50.998;4.250;2024-03-23T11:16:15;8.47;;;2.83;;
13592;SDS011;6867;50.998;4.250;2024-03-23T11:18:43;5.50;;;3.00;;
13592;SDS011;6867;50.998;4.250;2024-03-23T11:21:09;6.80;;;2.93;;
13592;SDS011;6867;50.998;4.250;2024-03-23T11:23:36;5.43;;;2.80;;
13592;SDS011;6867;50.998;4.250;2024-03-23T11:26:02;6.50;;;2.47;;
13592;SDS011;6867;50.998;4.250;2024-03-23T11:28:34;7.07;;;2.53;;
13592;SDS011;6867;50.998;4.250;2024-03-23T11:31:00;5.77;;;2.30;;
13592;SDS011;6867;50.998;4.250;2024-03-23T11:33:26;4.03;;;1.60;;
13592;SDS011;6867;50.998;4.250;2024-03-23T11:35:54;5.87;;;1.80;;
13592;SDS011;6867;50.998;4.250;2024-03-23T11:38:20;3.43;;;1.27;;
13592;SDS011;6867;50.998;4.250;2024-03-23T11:40:46;8.03;;;1.70;;
13592;SDS011;6867;50.998;4.250;2024-03-23T11:43:14;5.60;;;1.83;;
13592;SDS011;6867;50.998;4.250;2024-03-23T11:45:42;5.33;;;1.60;;
13592;SDS011;6867;50.998;4.250;2024-03-23T11:48:12;3.87;;;1.87;;
13592;SDS011;6867;50.998;4.250;2024-03-23T11:50:39;6.20;;;1.70;;
13592;SDS011;6867;50.998;4.250;2024-03-23T11:53:07;3.93;;;1.53;;
13592;SDS011;6867;50.998;4.250;2024-03-23T11:55:49;3.93;;;1.60;;
13592;SDS011;6867;50.998;4.250;2024-03-23T11:58:17;6.80;;;1.90;;
13592;SDS011;6867;50.998;4.250;2024-03-23T12:00:50;3.57;;;1.10;;
13592;SDS011;6867;50.998;4.250;2024-03-23T12:03:18;2.50;;;1.20;;
13592;SDS011;6867;50.998;4.250;2024-03-23T12:05:47;6.50;;;1.60;;
13592;SDS011;6867;50.998;4.250;2024-03-23T12:08:18;4.10;;;1.50;;
13592;SDS011;6867;50.998;4.250;2024-03-23T12:10:47;4.00;;;1.83;;
13592;SDS011;6867;50.998;4.250;2024-03-23T12:13:15;5.93;;;1.60;;
13592;SDS011;6867;50.998;4.250;2024-03-23T12:15:45;7.30;;;1.27;;
13592;SDS011;6867;50.998;4.250;2024-03-23T12:18:14;8.63;;;1.60;;
13592;SDS011;6867;50.998;4.250;2024-03-23T12:20:40;6.73;;;1.30;;
13592;SDS011;6867;50.998;4.250;2024-03-23T12:23:07;1.70;;;1.13;;
13592;SDS011;6867;50.998;4.250;2024-03-23T12:25:34;3.50;;;1.13;;
13592;SDS011;6867;50.998;4.250;2024-03-23T12:28:01;3.63;;;1.25;;
13592;SDS011;6867;50.998;4.250;2024-03-23T12:30:27;3.47;;;1.60;;
13592;SDS011;6867;50.998;4.250;2024-03-23T12:32:53;3.90;;;1.37;;
13592;SDS011;6867;50.998;4.250;2024-03-23T12:35:21;3.23;;;0.97;;
13592;SDS011;6867;50.998;4.250;2024-03-23T12:37:47;3.57;;;1.60;;
13592;SDS011;6867;50.998;4.250;2024-03-23T12:40:16;3.57;;;1.17;;
13592;SDS011;6867;50.998;4.250;2024-03-23T12:42:42;6.80;;;1.67;;
13592;SDS011;6867;50.998;4.250;2024-03-23T12:45:08;4.80;;;1.30;;
13592;SDS011;6867;50.998;4.250;2024-03-23T12:47:35;3.30;;;1.60;;
13592;SDS011;6867;50.998;4.250;2024-03-23T12:50:01;7.23;;;1.47;;
13592;SDS011;6867;50.998;4.250;2024-03-23T12:52:29;3.53;;;1.40;;
13592;SDS011;6867;50.998;4.250;2024-03-23T12:54:55;6.17;;;1.37;;
13592;SDS011;6867;50.998;4.250;2024-03-23T12:57:23;3.20;;;1.50;;
13592;SDS011;6867;50.998;4.250;2024-03-23T12:59:49;7.70;;;1.60;;
13592;SDS011;6867;50.998;4.250;2024-03-23T13:02:17;4.23;;;1.87;;
13592;SDS011;6867;50.998;4.250;2024-03-23T13:04:44;5.20;;;1.47;;
13592;SDS011;6867;50.998;4.250;2024-03-23T13:07:12;8.43;;;1.77;;
13592;SDS011;6867;50.998;4.250;2024-03-23T13:09:39;1.87;;;1.17;;
13592;SDS011;6867;50.998;4.250;2024-03-23T13:12:06;2.93;;;1.00;;
13592;SDS011;6867;50.998;4.250;2024-03-23T13:14:32;2.33;;;1.00;;
13592;SDS011;6867;50.998;4.250;2024-03-23T13:16:59;2.67;;;1.20;;
13592;SDS011;6867;50.998;4.250;2024-03-23T13:19:25;1.70;;;0.90;;
13592;SDS011;6867;50.998;4.250;2024-03-23T13:21:53;2.70;;;0.90;;
13592;SDS011;6867;50.998;4.250;2024-03-23T13:24:21;5.23;;;1.50;;
13592;SDS011;6867;50.998;4.250;2024-03-23T13:26:52;1.43;;;0.83;;
13592;SDS011;6867;50.998;4.250;2024-03-23T13:29:18;1.50;;;1.13;;
13592;SDS011;6867;50.998;4.250;2024-03-23T13:31:45;2.90;;;1.40;;
13592;SDS011;6867;50.998;4.250;2024-03-23T13:34:12;2.37;;;1.30;;
13592;SDS011;6867;50.998;4.250;2024-03-23T13:36:40;6.05;;;1.85;;
13592;SDS011;6867;50.998;4.250;2024-03-23T13:39:05;2.50;;;1.10;;
13592;SDS011;6867;50.998;4.250;2024-03-23T13:41:36;3.35;;;1.38;;
13592;SDS011;6867;50.998;4.250;2024-03-23T13:44:04;3.88;;;1.60;;
13592;SDS011;6867;50.998;4.250;2024-03-23T13:46:31;4.28;;;1.45;;
13592;SDS011;6867;50.998;4.250;2024-03-23T13:48:57;3.50;;;1.17;;
13592;SDS011;6867;50.998;4.250;2024-03-23T13:51:24;5.97;;;1.70;;
13592;SDS011;6867;50.998;4.250;2024-03-23T13:53:51;1.90;;;1.10;;
13592;SDS011;6867;50.998;4.250;2024-03-23T13:56:18;4.60;;;1.17;;
13592;SDS011;6867;50.998;4.250;2024-03-23T13:58:44;6.27;;;1.70;;
13592;SDS011;6867;50.998;4.250;2024-03-23T14:01:13;5.23;;;1.87;;
13592;SDS011;6867;50.998;4.250;2024-03-23T14:03:39;6.10;;;1.60;;
13592;SDS011;6867;50.998;4.250;2024-03-23T14:06:06;3.30;;;1.40;;
13592;SDS011;6867;50.998;4.250;2024-03-23T14:08:33;6.27;;;2.40;;
13592;SDS011;6867;50.998;4.250;2024-03-23T14:11:01;2.93;;;1.90;;
13592;SDS011;6867;50.998;4.250;2024-03-23T14:13:28;8.97;;;1.97;;
13592;SDS011;6867;50.998;4.250;2024-03-23T14:15:55;3.97;;;1.53;;
13592;SDS011;6867;50.998;4.250;2024-03-23T14:18:22;6.93;;;2.10;;
13592;SDS011;6867;50.998;4.250;2024-03-23T14:20:49;8.67;;;1.70;;
13592;SDS011;6867;50.998;4.250;2024-03-23T14:23:14;6.77;;;2.10;;
13592;SDS011;6867;50.998;4.250;2024-03-23T14:25:41;4.57;;;1.80;;
13592;SDS011;6867;50.998;4.250;2024-03-23T14:28:07;8.40;;;2.10;;
13592;SDS011;6867;50.998;4.250;2024-03-23T14:30:39;3.40;;;1.83;;
13592;SDS011;6867;50.998;4.250;2024-03-23T14:33:05;6.17;;;2.50;;
13592;SDS011;6867;50.998;4.250;2024-03-23T14:35:33;3.30;;;1.70;;
13592;SDS011;6867;50.998;4.250;2024-03-23T14:37:59;4.43;;;1.73;;
13592;SDS011;6867;50.998;4.250;2024-03-23T14:40:25;7.10;;;1.90;;
13592;SDS011;6867;50.998;4.250;2024-03-23T14:42:52;4.43;;;1.80;;
13592;SDS011;6867;50.998;4.250;2024-03-23T14:45:19;5.00;;;1.20;;
13592;SDS011;6867;50.998;4.250;2024-03-23T14:47:45;3.45;;;1.48;;
13592;SDS011;6867;50.998;4.250;2024-03-23T14:50:12;5.10;;;1.35;;
13592;SDS011;6867;50.998;4.250;2024-03-23T14:52:41;1.97;;;1.20;;
13592;SDS011;6867;50.998;4.250;2024-03-23T14:55:10;6.83;;;1.10;;
13592;SDS011;6867;50.998;4.250;2024-03-23T14:57:36;4.13;;;1.37;;
13592;SDS011;6867;50.998;4.250;2024-03-23T15:00:04;4.23;;;1.17;;
13592;SDS011;6867;50.998;4.250;2024-03-23T15:02:31;8.80;;;1.50;;
13592;SDS011;6867;50.998;4.250;2024-03-23T15:04:58;5.03;;;1.20;;
13592;SDS011;6867;50.998;4.250;2024-03-23T15:07:24;6.00;;;1.30;;
13592;SDS011;6867;50.998;4.250;2024-03-23T15:09:52;7.27;;;1.47;;
13592;SDS011;6867;50.998;4.250;2024-03-23T15:12:18;4.67;;;1.10;;
13592;SDS011;6867;50.998;4.250;2024-03-23T15:14:46;3.17;;;1.23;;
13592;SDS011;6867;50.998;4.250;2024-03-23T15:17:12;3.40;;;1.20;;
13592;SDS011;6867;50.998;4.250;2024-03-23T15:19:39;4.73;;;1.30;;
13592;SDS011;6867;50.998;4.250;2024-03-23T15:22:05;6.07;;;1.70;;
13592;SDS011;6867;50.998;4.250;2024-03-23T15:24:31;2.40;;;1.43;;
13592;SDS011;6867;50.998;4.250;2024-03-23T15:27:00;4.40;;;1.50;;
13592;SDS011;6867;50.998;4.250;2024-03-23T15:29:27;4.27;;;1.30;;
13592;SDS011;6867;50.998;4.250;2024-03-23T15:31:53;3.23;;;1.50;;
13592;SDS011;6867;50.998;4.250;2024-03-23T15:34:19;3.93;;;1.20;;
13592;SDS011;6867;50.998;4.250;2024-03-23T15:36:46;3.57;;;1.40;;
13592;SDS011;6867;50.998;4.250;2024-03-23T15:39:16;3.97;;;1.23;;
13592;SDS011;6867;50.998;4.250;2024-03-23T15:41:43;4.80;;;1.93;;
13592;SDS011;6867;50.998;4.250;2024-03-23T15:44:12;3.80;;;1.30;;
13592;SDS011;6867;50.998;4.250;2024-03-23T15:46:37;2.50;;;1.10;;
13592;SDS011;6867;50.998;4.250;2024-03-23T15:49:04;3.43;;;1.80;;